KSUE/SUE METAR and TAF weather

Enter ICAO airport designator
Station Type Date Time Source
KSUE METAR 2021/09/16 11:56 UTC NOAA

KSUE 161156Z AUTO 19005KT 10SM CLR 13/11 A3011 RMK AO2 SLP198 6//// 7//// T01330111 10150 20133 PNO $


Station Type Date Time Source
KSUE Decoded METAR 2021/09/16 11:56 UTC NOAA

Sturgeon Bay, WI, United States (KSUE) 44-51N 087-25W
Sep 16, 2021 - 07:56 AM EDT / 2021.09.16 1156 UTC
Wind: from the S (190 degrees) at 6 MPH (5 KT):0
Visibility: 10 mile(s):0
Sky conditions: clear
Temperature: 55.9 F (13.3 C)
Dew Point: 52.0 F (11.1 C)
Relative Humidity: 86%
Pressure (altimeter): 30.11 in. Hg (1019 hPa)
ob: KSUE 161156Z AUTO 19005KT 10SM CLR 13/11 A3011 RMK AO2 SLP198 6//// 7//// T01330111 10150 20133 PNO
cycle: 12

Station Type Date Time Source
KSUE TAF UTC NOAA

Error!

Example: see airport list